Time;durP1;ratioP1;P1;durP2;ratioP2;P2;SDS_P1;SDS_P2;PMS_P1;PMS_P2;Temp;Humidity;BMP_temperature;BMP_pressure;BME280_temperature;BME280_humidity;BME280_pressure;Samples;Min_cycle;Max_cycle;Signal;HPM_P1;HPM_P2
2020/12/06 00:00:08;;;;;;;54.35;36.03;;;;;;;0.68;99.68;94154.41;1048702;28;20028;-77
2020/12/06 00:00:39;;;;;;;64.65;38.53;;;;;;;0.66;99.44;94151.25;1052290;28;20026;-77
2020/12/06 00:01:09;;;;;;;59.75;37.22;;;;;;;0.69;99.74;94146.34;1052357;28;20043;-77
2020/12/06 00:01:40;;;;;;;68.13;40.45;;;;;;;0.58;99.34;94161.03;1048536;28;20440;-77
2020/12/06 00:02:11;;;;;;;70.18;41.97;;;;;;;0.58;99.59;94163.63;1052358;28;20032;-77
2020/12/06 00:02:41;;;;;;;66.63;40.08;;;;;;;0.60;99.55;94162.63;1052312;28;20098;-77
2020/12/06 00:03:11;;;;;;;70.40;42.08;;;;;;;0.56;99.51;94160.47;1052080;28;20024;-77
2020/12/06 00:03:42;;;;;;;58.42;36.97;;;;;;;0.65;99.38;94165.31;1052326;28;20473;-78
2020/12/06 00:04:18;;;;;;;66.55;40.30;;;;;;;0.63;99.32;94162.16;1052220;28;20020;-73
2020/12/06 00:04:49;;;;;;;63.58;40.38;;;;;;;0.64;99.31;94164.53;1048011;28;20512;-73
2020/12/06 00:05:19;;;;;;;59.88;37.53;;;;;;;0.61;99.35;94159.00;1048994;28;20126;-77
2020/12/06 00:05:50;;;;;;;56.97;36.63;;;;;;;0.62;99.49;94160.56;1052331;28;20137;-78
2020/12/06 00:06:20;;;;;;;67.20;38.92;;;;;;;0.56;99.69;94152.66;1052367;28;20024;-78
2020/12/06 00:06:51;;;;;;;62.00;38.95;;;;;;;0.55;100.00;94153.66;1052629;28;20103;-78
2020/12/06 00:07:21;;;;;;;65.30;40.72;;;;;;;0.54;100.00;94159.91;1052704;28;20035;-78
2020/12/06 00:07:52;;;;;;;65.47;40.35;;;;;;;0.53;100.00;94153.13;1052758;28;20377;-78
2020/12/06 00:08:22;;;;;;;60.75;38.08;;;;;;;0.52;100.00;94161.19;1052319;28;20424;-79
2020/12/06 00:08:52;;;;;;;62.80;37.95;;;;;;;0.55;100.00;94155.50;1052395;28;20046;-79
2020/12/06 00:09:23;;;;;;;62.83;37.83;;;;;;;0.59;100.00;94156.59;1048115;28;20501;-79
2020/12/06 00:09:53;;;;;;;60.88;37.40;;;;;;;0.58;100.00;94158.41;1044089;28;20024;-79
2020/12/06 00:10:24;;;;;;;60.00;37.38;;;;;;;0.60;100.00;94160.03;1044040;28;20029;-79
2020/12/06 00:10:54;;;;;;;64.53;38.63;;;;;;;0.57;100.00;94161.25;1043945;28;20025;-78
2020/12/06 00:11:25;;;;;;;61.67;38.45;;;;;;;0.66;100.00;94161.69;1047445;28;20045;-78
2020/12/06 00:11:58;;;;;;;65.35;40.78;;;;;;;0.67;99.78;94152.84;1048173;28;20028;-78
2020/12/06 00:12:33;;;;;;;64.53;38.15;;;;;;;0.60;100.00;94162.63;1048448;28;20021;-78
2020/12/06 00:13:03;;;;;;;63.88;38.60;;;;;;;0.55;100.00;94163.31;1048203;28;20016;-78
2020/12/06 00:13:33;;;;;;;69.85;39.47;;;;;;;0.53;100.00;94154.94;1039765;28;20053;-78
2020/12/06 00:14:04;;;;;;;67.30;38.92;;;;;;;0.53;100.00;94160.94;1039962;28;20030;-78
2020/12/06 00:14:34;;;;;;;65.25;39.47;;;;;;;0.57;100.00;94151.63;1036423;28;20041;-78
2020/12/06 00:15:08;;;;;;;63.53;40.08;;;;;;;0.60;100.00;94152.19;1040067;28;20021;-78
2020/12/06 00:15:38;;;;;;;60.50;38.33;;;;;;;0.57;100.00;94143.81;1048154;28;20025;-79
2020/12/06 00:16:13;;;;;;;75.85;43.20;;;;;;;0.62;100.00;94144.94;1048295;28;20016;-79
2020/12/06 00:16:43;;;;;;;56.22;36.35;;;;;;;0.67;99.90;94135.38;1048467;28;20025;-79
2020/12/06 00:17:14;;;;;;;56.80;36.85;;;;;;;0.71;99.79;94133.06;1048392;28;20037;-79
2020/12/06 00:17:44;;;;;;;65.60;41.50;;;;;;;0.67;100.00;94129.38;1048419;28;20029;-79
2020/12/06 00:18:15;;;;;;;67.43;40.50;;;;;;;0.70;99.86;94129.69;1048510;28;20036;-79
2020/12/06 00:18:46;;;;;;;65.18;40.78;;;;;;;0.65;100.00;94123.59;1050608;28;20024;-78
2020/12/06 00:19:16;;;;;;;64.82;40.50;;;;;;;0.63;100.00;94125.66;1052530;28;20036;-76
2020/12/06 00:19:47;;;;;;;67.55;38.97;;;;;;;0.64;100.00;94128.03;1052650;28;20024;-78
2020/12/06 00:20:17;;;;;;;66.15;39.35;;;;;;;0.67;100.00;94134.56;1052600;28;20491;-76
2020/12/06 00:20:48;;;;;;;61.85;39.05;;;;;;;0.65;100.00;94134.03;1052663;28;20016;-77
2020/12/06 00:21:19;;;;;;;67.18;40.95;;;;;;;0.64;100.00;94142.88;1052627;28;20020;-76
2020/12/06 00:21:49;;;;;;;66.30;39.17;;;;;;;0.64;100.00;94142.88;1052617;28;20012;-77
2020/12/06 00:22:19;;;;;;;68.68;40.58;;;;;;;0.62;100.00;94139.72;1052353;28;20027;-77
2020/12/06 00:22:50;;;;;;;71.07;41.92;;;;;;;0.62;100.00;94144.94;1052076;28;20032;-77
2020/12/06 00:23:20;;;;;;;63.30;37.97;;;;;;;0.65;100.00;94145.25;1052174;28;20028;-76
2020/12/06 00:23:51;;;;;;;66.28;39.28;;;;;;;0.66;100.00;94149.44;1052212;28;20031;-77
2020/12/06 00:24:22;;;;;;;59.60;37.65;;;;;;;0.64;99.96;94153.31;1051821;28;20388;-76
2020/12/06 00:24:52;;;;;;;70.28;42.50;;;;;;;0.62;100.00;94152.75;1052508;28;20016;-76
2020/12/06 00:25:23;;;;;;;69.95;41.17;;;;;;;0.62;99.69;94161.38;1052539;28;20020;-76
2020/12/06 00:25:56;;;;;;;69.88;40.80;;;;;;;0.63;99.67;94167.38;1052060;28;20028;-77
2020/12/06 00:26:27;;;;;;;59.55;38.05;;;;;;;0.62;99.67;94158.75;1052085;28;20027;-78
2020/12/06 00:26:58;;;;;;;66.07;40.42;;;;;;;0.63;99.26;94170.75;1048192;28;20024;-76
2020/12/06 00:27:31;;;;;;;61.55;39.47;;;;;;;0.58;100.00;94176.66;1048709;28;20373;-79
2020/12/06 00:28:02;;;;;;;68.63;40.42;;;;;;;0.56;100.00;94178.72;1052334;28;20085;-77
2020/12/06 00:28:32;;;;;;;76.63;43.25;;;;;;;0.54;100.00;94188.59;1052331;28;20153;-77
2020/12/06 00:29:03;;;;;;;73.13;41.80;;;;;;;0.49;100.00;94193.72;1052385;28;20016;-78
2020/12/06 00:29:33;;;;;;;76.75;43.85;;;;;;;0.50;100.00;94187.47;1052367;28;20102;-78
2020/12/06 00:30:05;;;;;;;68.60;41.58;;;;;;;0.52;100.00;94182.81;1052367;28;20031;-77
2020/12/06 00:30:35;;;;;;;71.78;41.08;;;;;;;0.59;100.00;94185.28;1052695;28;20021;-77
2020/12/06 00:31:06;;;;;;;65.93;38.90;;;;;;;0.64;99.97;94184.59;1052587;28;20016;-77
2020/12/06 00:31:36;;;;;;;71.45;42.17;;;;;;;0.61;100.00;94185.84;1051196;28;20362;-78
2020/12/06 00:32:06;;;;;;;71.03;42.08;;;;;;;0.61;100.00;94183.25;1049903;28;20487;-78
2020/12/06 00:32:37;;;;;;;76.88;42.58;;;;;;;0.50;100.00;94187.47;1051392;28;20016;-78
2020/12/06 00:33:09;;;;;;;65.30;39.08;;;;;;;0.56;100.00;94196.16;1049908;28;20012;-74
2020/12/06 00:33:39;;;;;;;68.13;41.25;;;;;;;0.52;100.00;94182.81;1050711;28;20028;-75
2020/12/06 00:34:11;;;;;;;59.60;37.55;;;;;;;0.50;100.00;94177.06;1052524;28;20077;-81
2020/12/06 00:34:41;;;;;;;65.38;40.30;;;;;;;0.51;100.00;94181.25;1049861;28;20013;-74
2020/12/06 00:35:12;;;;;;;59.85;37.92;;;;;;;0.48;100.00;94180.91;1052458;28;20577;-77
2020/12/06 00:35:42;;;;;;;62.25;38.05;;;;;;;0.52;100.00;94175.00;1052395;28;20483;-77
2020/12/06 00:36:13;;;;;;;63.33;38.28;;;;;;;0.54;100.00;94175.56;1052461;28;20069;-77
2020/12/06 00:36:47;;;;;;;65.32;38.10;;;;;;;0.56;100.00;94178.72;1052658;28;20063;-89
2020/12/06 00:37:17;;;;;;;66.80;40.13;;;;;;;0.54;100.00;94180.78;1052089;28;20099;-79
2020/12/06 00:37:47;;;;;;;63.95;39.08;;;;;;;0.53;100.00;94173.97;1052091;28;20024;-79
2020/12/06 00:38:18;;;;;;;61.00;37.22;;;;;;;0.58;100.00;94173.25;1052154;28;20020;-79
2020/12/06 00:38:48;;;;;;;65.05;39.20;;;;;;;0.57;100.00;94182.13;1052264;28;20016;-80
2020/12/06 00:39:19;;;;;;;60.13;38.58;;;;;;;0.61;100.00;94174.63;1052561;28;20016;-80
2020/12/06 00:39:49;;;;;;;62.78;39.97;;;;;;;0.61;100.00;94174.63;1052140;28;20539;-80
2020/12/06 00:40:19;;;;;;;80.72;43.40;;;;;;;0.55;100.00;94181.56;1051400;28;20028;-80
2020/12/06 00:40:50;;;;;;;61.88;37.85;;;;;;;0.57;100.00;94182.91;1052192;28;21549;-80
2020/12/06 00:41:23;;;;;;;78.68;43.35;;;;;;;0.53;99.99;94181.78;1048097;28;20497;-80
2020/12/06 00:41:53;;;;;;;63.28;39.80;;;;;;;0.50;100.00;94179.66;1051898;28;20013;-79
2020/12/06 00:42:25;;;;;;;64.88;40.92;;;;;;;0.54;100.00;94178.16;1052191;28;20083;-79
2020/12/06 00:42:55;;;;;;;73.22;41.83;;;;;;;0.50;100.00;94184.88;1052376;28;20469;-80
2020/12/06 00:43:26;;;;;;;61.00;38.20;;;;;;;0.51;100.00;94186.44;1052603;28;20016;-80
2020/12/06 00:43:57;;;;;;;63.05;38.55;;;;;;;0.56;100.00;94191.75;1052552;28;20026;-80
2020/12/06 00:44:28;;;;;;;59.15;37.95;;;;;;;0.51;100.00;94175.25;1052568;28;20094;-80
2020/12/06 00:44:58;;;;;;;61.13;38.63;;;;;;;0.57;100.00;94185.50;1052889;28;20086;-80
2020/12/06 00:45:29;;;;;;;60.55;37.13;;;;;;;0.53;100.00;94181.78;1052778;28;20036;-80
2020/12/06 00:45:59;;;;;;;67.35;39.70;;;;;;;0.60;100.00;94186.09;1054495;28;20017;-81
2020/12/06 00:46:32;;;;;;;67.85;40.45;;;;;;;0.60;100.00;94193.91;1055241;28;20024;-80
2020/12/06 00:47:03;;;;;;;62.20;39.10;;;;;;;0.58;100.00;94186.28;1052476;28;20023;-81
2020/12/06 00:47:37;;;;;;;62.50;38.65;;;;;;;0.57;100.00;94185.50;1055125;28;20012;-80
2020/12/06 00:48:07;;;;;;;57.92;37.05;;;;;;;0.55;100.00;94187.56;1054274;28;20019;-80
2020/12/06 00:48:38;;;;;;;61.80;38.10;;;;;;;0.55;100.00;94192.00;1053395;28;20023;-80
2020/12/06 00:49:08;;;;;;;65.05;40.78;;;;;;;0.52;100.00;94190.66;1053526;28;20027;-80
2020/12/06 00:49:39;;;;;;;70.43;39.60;;;;;;;0.51;100.00;94191.66;1053270;28;20024;-81
2020/12/06 00:50:10;;;;;;;63.40;38.15;;;;;;;0.51;100.00;94186.44;1053220;28;20020;-80
2020/12/06 00:50:40;;;;;;;58.50;37.65;;;;;;;0.53;100.00;94179.19;1053225;28;20043;-80
2020/12/06 00:51:11;;;;;;;64.53;38.45;;;;;;;0.49;100.00;94183.28;1053420;28;20490;-80
2020/12/06 00:51:41;;;;;;;64.00;37.72;;;;;;;0.52;100.00;94176.81;1053279;28;20020;-80
2020/12/06 00:52:12;;;;;;;61.15;38.60;;;;;;;0.54;100.00;94185.97;1052879;28;20032;-80
2020/12/06 00:52:42;;;;;;;63.95;38.17;;;;;;;0.51;100.00;94178.63;1053027;28;20107;-80
2020/12/06 00:53:13;;;;;;;65.00;40.00;;;;;;;0.51;100.00;94178.63;1048853;28;20488;-80
2020/12/06 00:53:43;;;;;;;67.57;40.15;;;;;;;0.44;100.00;94177.97;1047465;28;20031;-80
2020/12/06 00:54:14;;;;;;;73.32;42.30;;;;;;;0.42;100.00;94182.63;1048837;28;20044;-80
2020/12/06 00:54:44;;;;;;;68.85;41.53;;;;;;;0.38;100.00;94165.88;1048807;28;20083;-81
2020/12/06 00:55:15;;;;;;;60.08;38.42;;;;;;;0.46;100.00;94173.31;1048963;28;20039;-80
2020/12/06 00:55:45;;;;;;;59.25;37.17;;;;;;;0.50;100.00;94168.44;1050428;28;20051;-80
2020/12/06 00:56:19;;;;;;;61.65;38.60;;;;;;;0.49;100.00;94167.66;1053013;28;20020;-80
2020/12/06 00:56:56;;;;;;;62.67;39.95;;;;;;;0.49;100.00;94159.84;1053101;28;20016;-80
2020/12/06 00:57:26;;;;;;;65.97;38.80;;;;;;;0.49;100.00;94156.44;1053206;28;20107;-80
2020/12/06 00:57:57;;;;;;;66.43;39.85;;;;;;;0.47;100.00;94150.66;1049943;28;20024;-80
2020/12/06 00:58:27;;;;;;;63.85;39.35;;;;;;;0.47;100.00;94153.25;1049292;28;20021;-80
2020/12/06 00:58:58;;;;;;;70.53;41.35;;;;;;;0.43;100.00;94152.16;1049195;28;20028;-80
2020/12/06 00:59:28;;;;;;;61.85;39.15;;;;;;;0.44;100.00;94148.50;1049132;28;20028;-81
2020/12/06 00:59:59;;;;;;;63.33;38.83;;;;;;;0.47;100.00;94159.25;1052871;28;20302;-80
2020/12/06 01:00:29;;;;;;;68.15;41.83;;;;;;;0.45;100.00;94152.69;1055239;28;20457;-81
2020/12/06 01:00:59;;;;;;;62.47;38.63;;;;;;;0.47;100.00;94158.47;1052954;28;20031;-80
2020/12/06 01:01:30;;;;;;;65.72;40.45;;;;;;;0.48;100.00;94149.66;1048877;28;20094;-80
2020/12/06 01:02:03;;;;;;;63.40;39.70;;;;;;;0.54;100.00;94152.09;1044910;28;20043;-80
2020/12/06 01:02:33;;;;;;;69.00;40.45;;;;;;;0.52;100.00;94148.94;1048854;28;20024;-80
2020/12/06 01:03:05;;;;;;;64.32;38.60;;;;;;;0.50;100.00;94142.38;1052183;28;20032;-80
2020/12/06 01:03:38;;;;;;;65.63;40.42;;;;;;;0.54;100.00;94138.28;1053875;28;20068;-80
2020/12/06 01:04:19;;;;;;;61.45;40.25;;;;;;;0.53;100.00;94153.13;1054071;28;20031;-81
2020/12/06 01:04:50;;;;;;;58.88;38.58;;;;;;;0.54;100.00;94148.69;1053289;28;20086;-81
2020/12/06 01:05:20;;;;;;;64.65;38.63;;;;;;;0.57;100.00;94143.00;1055019;28;20039;-79
2020/12/06 01:05:51;;;;;;;61.78;38.15;;;;;;;0.56;100.00;94157.88;1050521;28;20027;-79
2020/12/06 01:06:21;;;;;;;59.90;36.50;;;;;;;0.60;100.00;94157.41;1048837;28;20036;-79
2020/12/06 01:06:51;;;;;;;58.63;38.00;;;;;;;0.64;100.00;94163.72;1048863;28;20044;-79
2020/12/06 01:07:22;;;;;;;67.03;40.42;;;;;;;0.55;100.00;94151.06;1048773;28;20098;-79
2020/12/06 01:07:53;;;;;;;66.30;39.90;;;;;;;0.61;99.73;94159.78;1051938;28;20097;-79
2020/12/06 01:08:23;;;;;;;73.43;42.40;;;;;;;0.54;99.65;94167.72;1053357;28;20027;-79
2020/12/06 01:08:54;;;;;;;61.38;38.30;;;;;;;0.47;100.00;94155.84;1053352;28;20043;-79
2020/12/06 01:09:24;;;;;;;74.18;42.47;;;;;;;0.41;100.00;94151.59;1053297;28;20377;-78
2020/12/06 01:09:55;;;;;;;64.65;38.47;;;;;;;0.44;100.00;94154.50;1050144;28;20023;-79
2020/12/06 01:10:25;;;;;;;61.47;40.13;;;;;;;0.50;100.00;94152.81;1049043;28;20048;-79
2020/12/06 01:10:55;;;;;;;60.95;37.67;;;;;;;0.46;100.00;94149.84;1049148;28;20461;-79
2020/12/06 01:11:26;;;;;;;73.28;42.80;;;;;;;0.50;100.00;94151.00;1049036;28;20054;-79
2020/12/06 01:11:58;;;;;;;67.85;40.35;;;;;;;0.47;100.00;94154.03;1052351;28;20106;-79
2020/12/06 01:12:29;;;;;;;74.10;42.78;;;;;;;0.45;100.00;94161.31;1053230;28;20077;-79
2020/12/06 01:12:59;;;;;;;69.80;40.85;;;;;;;0.48;100.00;94166.06;1053213;28;20085;-79
2020/12/06 01:13:29;;;;;;;65.13;39.80;;;;;;;0.53;100.00;94167.97;1053047;28;20024;-78
2020/12/06 01:14:00;;;;;;;69.90;41.25;;;;;;;0.47;100.00;94168.88;1049434;28;20035;-79
2020/12/06 01:14:30;;;;;;;61.85;39.35;;;;;;;0.52;100.00;94164.56;1049047;28;20024;-79
2020/12/06 01:15:01;;;;;;;62.40;39.80;;;;;;;0.53;100.00;94163.56;1049092;28;20044;-78
2020/12/06 01:15:31;;;;;;;59.65;38.72;;;;;;;0.51;100.00;94160.38;1048994;28;20017;-79
2020/12/06 01:16:02;;;;;;;72.35;41.13;;;;;;;0.52;100.00;94161.19;1053156;28;20020;-79
2020/12/06 01:16:32;;;;;;;64.45;38.83;;;;;;;0.53;100.00;94154.94;1053245;28;20091;-79
2020/12/06 01:17:03;;;;;;;67.75;38.90;;;;;;;0.53;100.00;94157.53;1053122;28;20534;-79
2020/12/06 01:17:33;;;;;;;67.43;39.67;;;;;;;0.58;100.00;94165.44;1053113;28;20077;-79
2020/12/06 01:18:03;;;;;;;67.13;40.30;;;;;;;0.58;100.00;94157.63;1049056;28;20078;-79
2020/12/06 01:18:34;;;;;;;63.80;38.85;;;;;;;0.51;100.00;94157.78;1049064;28;20021;-79
2020/12/06 01:19:04;;;;;;;66.22;40.78;;;;;;;0.54;100.00;94154.69;1049067;28;20462;-79
2020/12/06 01:19:35;;;;;;;63.25;40.22;;;;;;;0.51;100.00;94147.34;1049111;28;20047;-79
2020/12/06 01:20:06;;;;;;;71.53;41.72;;;;;;;0.48;100.00;94149.66;1052780;28;20004;-78
2020/12/06 01:20:36;;;;;;;61.88;39.90;;;;;;;0.53;100.00;94147.13;1053068;28;20488;-79
2020/12/06 01:21:10;;;;;;;60.85;38.78;;;;;;;0.49;100.00;94146.81;1053133;28;20019;-79
2020/12/06 01:21:40;;;;;;;68.10;40.17;;;;;;;0.48;100.00;94136.63;1052044;28;20028;-79
2020/12/06 01:22:12;;;;;;;66.70;38.28;;;;;;;0.52;100.00;94124.69;1049856;28;20013;-80
2020/12/06 01:22:42;;;;;;;65.13;39.95;;;;;;;0.50;100.00;94131.94;1049446;28;20032;-79
2020/12/06 01:23:12;;;;;;;66.72;38.15;;;;;;;0.53;100.00;94131.47;1048984;28;20016;-79
2020/12/06 01:23:43;;;;;;;65.00;39.88;;;;;;;0.50;100.00;94140.56;1050290;28;20020;-79
2020/12/06 01:24:13;;;;;;;61.28;38.42;;;;;;;0.52;100.00;94154.16;1053198;28;20016;-79
2020/12/06 01:24:44;;;;;;;61.60;39.97;;;;;;;0.50;100.00;94145.00;1053213;28;20369;-79
2020/12/06 01:25:14;;;;;;;70.45;42.03;;;;;;;0.48;100.00;94144.44;1053239;28;20373;-79
2020/12/06 01:25:45;;;;;;;67.25;41.15;;;;;;;0.51;100.00;94144.75;1051452;28;20054;-79
2020/12/06 01:26:15;;;;;;;68.80;41.15;;;;;;;0.50;100.00;94135.34;1048997;28;20027;-78
2020/12/06 01:26:48;;;;;;;67.43;40.10;;;;;;;0.51;100.00;94131.72;1048947;28;20024;-78
2020/12/06 01:27:19;;;;;;;79.25;42.72;;;;;;;0.47;100.00;94141.00;1044610;28;20013;-78
2020/12/06 01:27:49;;;;;;;71.60;42.25;;;;;;;0.50;100.00;94132.75;1044640;28;20029;-77
2020/12/06 01:28:19;;;;;;;63.10;40.10;;;;;;;0.52;100.00;94125.47;1041160;28;20025;-78
2020/12/06 01:28:50;;;;;;;64.03;39.42;;;;;;;0.54;100.00;94133.84;1044725;28;20035;-78
2020/12/06 01:29:20;;;;;;;61.72;39.17;;;;;;;0.54;100.00;94122.63;1048923;28;20417;-78
2020/12/06 01:29:51;;;;;;;75.82;42.63;;;;;;;0.56;100.00;94126.56;1048673;28;20555;-78
2020/12/06 01:30:21;;;;;;;65.07;40.67;;;;;;;0.53;100.00;94134.09;1048704;28;20025;-78
2020/12/06 01:30:52;;;;;;;65.40;40.50;;;;;;;0.54;100.00;94133.06;1048773;28;20457;-78
2020/12/06 01:31:23;;;;;;;63.95;39.47;;;;;;;0.49;100.00;94125.94;1048782;28;20049;-78
2020/12/06 01:31:55;;;;;;;60.83;38.75;;;;;;;0.50;100.00;94132.75;1048644;28;20496;-78
2020/12/06 01:32:25;;;;;;;63.55;39.22;;;;;;;0.53;100.00;94137.47;1049046;28;20488;-78
2020/12/06 01:32:56;;;;;;;64.40;39.05;;;;;;;0.55;100.00;94132.03;1048764;28;20028;-78
2020/12/06 01:33:26;;;;;;;61.72;39.35;;;;;;;0.60;100.00;94132.13;1048828;28;20039;-78
2020/12/06 01:33:56;;;;;;;65.65;39.60;;;;;;;0.53;100.00;94129.66;1048744;28;20028;-78
2020/12/06 01:34:27;;;;;;;62.40;38.55;;;;;;;0.53;100.00;94134.09;1048747;28;20025;-79
2020/12/06 01:34:57;;;;;;;63.70;39.78;;;;;;;0.57;100.00;94145.63;1048997;28;20378;-78
2020/12/06 01:35:28;;;;;;;62.45;38.13;;;;;;;0.54;100.00;94146.88;1049141;28;20469;-78
2020/12/06 01:35:58;;;;;;;66.85;40.70;;;;;;;0.55;100.00;94145.84;1049058;28;20025;-78
2020/12/06 01:36:28;;;;;;;65.72;40.55;;;;;;;0.55;100.00;94135.44;1049012;28;20385;-78
2020/12/06 01:36:59;;;;;;;72.32;41.97;;;;;;;0.62;100.00;94135.28;1049001;28;20069;-78
2020/12/06 01:37:29;;;;;;;61.25;39.05;;;;;;;0.59;100.00;94133.13;1048704;28;20024;-78
2020/12/06 01:38:00;;;;;;;62.13;39.10;;;;;;;0.61;100.00;94135.53;1048780;28;20017;-78
2020/12/06 01:38:30;;;;;;;60.35;38.13;;;;;;;0.58;100.00;94129.75;1048704;28;20117;-79
2020/12/06 01:39:01;;;;;;;63.20;38.58;;;;;;;0.61;100.00;94132.94;1048738;28;20067;-79
2020/12/06 01:39:31;;;;;;;64.97;39.38;;;;;;;0.69;100.00;94129.91;1049077;28;20021;-78
2020/12/06 01:40:02;;;;;;;64.28;38.88;;;;;;;0.67;100.00;94126.75;1049061;28;20432;-78
2020/12/06 01:40:38;;;;;;;65.45;38.85;;;;;;;0.64;100.00;94138.44;1048973;28;20473;-78
2020/12/06 01:41:09;;;;;;;63.90;38.80;;;;;;;0.63;100.00;94123.03;1049041;28;20385;-78
2020/12/06 01:41:39;;;;;;;64.40;39.05;;;;;;;0.58;100.00;94124.53;1049067;28;20025;-78
2020/12/06 01:42:09;;;;;;;62.28;37.22;;;;;;;0.61;100.00;94117.28;1048984;28;20032;-78
2020/12/06 01:42:40;;;;;;;68.65;40.92;;;;;;;0.56;100.00;94110.94;1048942;28;20012;-78
2020/12/06 01:43:10;;;;;;;77.43;42.53;;;;;;;0.60;100.00;94102.66;1048726;28;20020;-78
2020/12/06 01:43:41;;;;;;;74.45;40.65;;;;;;;0.61;100.00;94102.44;1048727;28;20024;-79
2020/12/06 01:44:11;;;;;;;69.85;41.15;;;;;;;0.56;100.00;94100.50;1052806;28;20039;-79
2020/12/06 01:44:41;;;;;;;67.15;40.50;;;;;;;0.56;100.00;94100.50;1052811;28;20075;-78
2020/12/06 01:45:12;;;;;;;68.88;40.00;;;;;;;0.53;100.00;94095.78;1052666;28;20028;-79
2020/12/06 01:45:42;;;;;;;60.33;37.58;;;;;;;0.55;100.00;94098.94;1052786;28;20020;-79
2020/12/06 01:46:13;;;;;;;75.80;42.75;;;;;;;0.44;100.00;94097.19;1048968;28;20012;-79
2020/12/06 01:46:43;;;;;;;58.35;36.55;;;;;;;0.56;100.00;94104.94;1048943;28;20040;-79
2020/12/06 01:47:14;;;;;;;61.20;37.47;;;;;;;0.61;100.00;94102.44;1048710;28;20025;-78
2020/12/06 01:47:44;;;;;;;66.97;40.28;;;;;;;0.65;100.00;94103.53;1048641;28;20414;-78
2020/12/06 01:48:15;;;;;;;62.88;38.67;;;;;;;0.67;99.70;94108.50;1048709;28;20021;-78
2020/12/06 01:48:45;;;;;;;70.97;42.42;;;;;;;0.53;99.59;94108.03;1048564;28;20101;-78
2020/12/06 01:49:16;;;;;;;67.95;41.17;;;;;;;0.53;100.00;94121.06;1048550;28;20485;-78
2020/12/06 01:49:46;;;;;;;76.18;42.85;;;;;;;0.56;100.00;94112.75;1048625;28;20523;-78
2020/12/06 01:50:16;;;;;;;66.93;41.75;;;;;;;0.56;100.00;94116.16;1044596;28;20025;-78
2020/12/06 01:50:47;;;;;;;68.13;42.30;;;;;;;0.52;100.00;94120.25;1036319;28;20384;-78
2020/12/06 01:51:18;;;;;;;67.38;40.17;;;;;;;0.55;100.00;94119.78;1040446;28;20454;-78
2020/12/06 01:51:54;;;;;;;61.70;38.58;;;;;;;0.57;100.00;94117.72;1040471;28;20041;-78
2020/12/06 01:52:26;;;;;;;64.28;40.65;;;;;;;0.61;100.00;94117.28;1045499;28;20397;-78
2020/12/06 01:52:57;;;;;;;71.63;40.78;;;;;;;0.57;100.00;94107.31;1049806;28;20024;-78
2020/12/06 01:53:27;;;;;;;61.97;38.60;;;;;;;0.57;100.00;94111.72;1048669;28;20453;-78
2020/12/06 01:53:57;;;;;;;67.32;40.35;;;;;;;0.57;100.00;94116.94;1044480;28;20536;-78
2020/12/06 01:54:28;;;;;;;61.35;38.92;;;;;;;0.63;100.00;94112.63;1044570;28;20040;-78
2020/12/06 01:54:58;;;;;;;60.13;37.90;;;;;;;0.64;100.00;94112.38;1040269;28;20033;-78
2020/12/06 01:55:29;;;;;;;65.85;39.28;;;;;;;0.58;100.00;94111.50;1040569;28;20036;-78
2020/12/06 01:55:59;;;;;;;62.83;39.20;;;;;;;0.57;100.00;94119.53;1036371;28;20018;-78
2020/12/06 01:56:30;;;;;;;70.05;39.38;;;;;;;0.55;100.00;94114.56;1040559;28;20025;-78
2020/12/06 01:57:01;;;;;;;66.25;39.80;;;;;;;0.57;100.00;94115.13;1044381;28;20014;-78
2020/12/06 01:57:31;;;;;;;70.68;39.65;;;;;;;0.49;100.00;94099.09;1044586;28;20434;-78
2020/12/06 01:58:09;;;;;;;73.15;41.42;;;;;;;0.54;100.00;94097.34;1048367;28;20017;-78
2020/12/06 01:58:39;;;;;;;62.97;38.72;;;;;;;0.57;99.98;94089.06;1048978;28;20054;-78
2020/12/06 01:59:11;;;;;;;66.47;39.70;;;;;;;0.57;99.89;94088.25;1048901;28;20028;-78
2020/12/06 01:59:42;;;;;;;64.95;39.42;;;;;;;0.58;99.98;94082.81;1048661;28;20025;-78
2020/12/06 02:00:12;;;;;;;69.60;41.75;;;;;;;0.57;100.00;94075.22;1048552;28;20021;-77
2020/12/06 02:00:42;;;;;;;65.63;40.33;;;;;;;0.61;100.00;94076.38;1044330;28;20028;-78
2020/12/06 02:01:13;;;;;;;63.63;40.05;;;;;;;0.65;100.00;94076.66;1048693;28;20025;-79
2020/12/06 02:02:12;;;;;;;68.47;39.72;;;;;;;0.63;100.00;94084.72;1052835;28;20017;-79
2020/12/06 02:02:43;;;;;;;64.50;36.42;;;;;;;0.66;100.00;94073.03;1040113;28;20031;-79
2020/12/06 02:03:14;;;;;;;64.18;39.20;;;;;;;0.70;100.00;94087.97;1048833;28;20020;-79
2020/12/06 02:03:44;;;;;;;64.03;38.90;;;;;;;0.68;99.79;94076.97;1048692;28;20045;-79
2020/12/06 02:04:15;;;;;;;68.70;39.10;;;;;;;0.70;99.82;94072.31;1044439;28;20103;-79
2020/12/06 02:04:45;;;;;;;67.88;39.75;;;;;;;0.71;99.40;94081.75;1044491;28;20020;-79
2020/12/06 02:05:15;;;;;;;64.38;38.47;;;;;;;0.66;99.42;94075.63;1044484;28;20482;-79
2020/12/06 02:05:46;;;;;;;65.38;40.47;;;;;;;0.67;99.51;94070.19;1044464;28;20024;-79
2020/12/06 02:06:16;;;;;;;68.32;41.38;;;;;;;0.60;99.53;94066.97;1044423;28;20052;-79
2020/12/06 02:06:47;;;;;;;70.70;41.10;;;;;;;0.62;99.66;94072.72;1044424;28;20126;-79
2020/12/06 02:07:17;;;;;;;66.65;39.35;;;;;;;0.60;100.00;94079.22;1044540;28;20040;-79
2020/12/06 02:07:47;;;;;;;60.85;38.45;;;;;;;0.62;100.00;94071.94;1048565;28;20536;-79
2020/12/06 02:08:18;;;;;;;60.15;37.78;;;;;;;0.64;100.00;94064.66;1048926;28;20031;-79
2020/12/06 02:08:49;;;;;;;67.78;39.72;;;;;;;0.64;100.00;94069.88;1048932;28;20089;-79
2020/12/06 02:09:20;;;;;;;75.55;42.10;;;;;;;0.62;100.00;94058.91;1048543;28;20025;-79
2020/12/06 02:09:50;;;;;;;65.45;39.63;;;;;;;0.64;100.00;94055.03;1048511;28;20072;-79
2020/12/06 02:10:20;;;;;;;67.03;39.63;;;;;;;0.65;100.00;94051.38;1048609;28;20020;-79
2020/12/06 02:10:51;;;;;;;62.50;37.33;;;;;;;0.64;100.00;94041.19;1048569;28;20016;-79
2020/12/06 02:11:31;;;;;;;67.18;39.88;;;;;;;0.63;100.00;94042.22;1048832;28;20016;-79
2020/12/06 02:12:07;;;;;;;65.30;39.28;;;;;;;0.64;100.00;94041.19;1048788;28;20016;-79
2020/12/06 02:12:47;;;;;;;63.40;38.20;;;;;;;0.62;100.00;94041.44;1048856;28;20031;-79
2020/12/06 02:13:20;;;;;;;64.10;37.60;;;;;;;0.66;100.00;94047.75;1056838;28;20496;-79
2020/12/06 02:13:50;;;;;;;74.32;40.17;;;;;;;0.65;100.00;94045.38;1056971;28;20043;-79
2020/12/06 02:14:21;;;;;;;74.85;41.63;;;;;;;0.64;100.00;94042.00;1057033;28;20270;-79
2020/12/06 02:14:51;;;;;;;65.53;39.30;;;;;;;0.64;100.00;94041.19;1055862;28;20506;-79
2020/12/06 02:15:22;;;;;;;71.13;41.20;;;;;;;0.61;100.00;94046.91;1048906;28;20458;-79
2020/12/06 02:15:54;;;;;;;66.18;40.13;;;;;;;0.57;100.00;94049.94;1048762;28;20055;-79
2020/12/06 02:16:25;;;;;;;71.95;40.75;;;;;;;0.61;100.00;94044.28;1048881;28;20373;-79
2020/12/06 02:16:55;;;;;;;68.28;39.50;;;;;;;0.58;100.00;94043.72;1048781;28;20059;-79
2020/12/06 02:17:26;;;;;;;66.45;38.92;;;;;;;0.62;100.00;94046.66;1048905;28;20632;-79
2020/12/06 02:17:56;;;;;;;64.05;38.75;;;;;;;0.66;99.85;94054.78;1048784;28;20020;-79
2020/12/06 02:18:27;;;;;;;59.72;37.42;;;;;;;0.68;99.86;94048.31;1044371;28;20054;-79
2020/12/06 02:18:57;;;;;;;64.07;39.25;;;;;;;0.67;100.00;94053.75;1044422;28;20058;-79
2020/12/06 02:19:28;;;;;;;65.30;39.58;;;;;;;0.64;100.00;94038.59;1044411;28;20062;-79
2020/12/06 02:19:58;;;;;;;66.80;41.38;;;;;;;0.63;100.00;94039.63;1044414;28;20033;-79
2020/12/06 02:20:28;;;;;;;68.38;40.42;;;;;;;0.61;100.00;94039.06;1048488;28;20024;-79
2020/12/06 02:21:00;;;;;;;71.00;40.50;;;;;;;0.57;100.00;94029.09;1044361;28;20029;-81
2020/12/06 02:21:31;;;;;;;67.00;41.40;;;;;;;0.66;100.00;94026.91;1044429;28;20029;-82
2020/12/06 02:22:01;;;;;;;78.30;43.15;;;;;;;0.70;100.00;94032.41;1044752;28;20044;-81
2020/12/06 02:22:32;;;;;;;67.82;39.65;;;;;;;0.65;99.86;94024.53;1048466;28;20024;-82
2020/12/06 02:23:04;;;;;;;78.55;42.45;;;;;;;0.62;100.00;94019.78;1048535;28;20035;-82